Time;durP1;ratioP1;P1;durP2;ratioP2;P2;SDS_P1;SDS_P2;PMS_P1;PMS_P2;Temp;Humidity;BMP_temperature;BMP_pressure;BME280_temperature;BME280_humidity;BME280_pressure;Samples;Min_cycle;Max_cycle;Signal;HPM_P1;HPM_P2
2022/12/10 00:01:20;;;;;;;32.72;13.45;;;;;;;-0.32;100.00;99025.22;5016820;28;20092;-57
2022/12/10 00:03:47;;;;;;;32.58;12.73;;;;;;;0.16;100.00;99041.84;5016495;28;20060;-59
2022/12/10 00:06:16;;;;;;;31.38;12.15;;;;;;;-0.04;100.00;99034.13;5016755;28;20153;-57
2022/12/10 00:08:43;;;;;;;31.48;13.93;;;;;;;0.13;100.00;99030.84;5016380;28;20058;-59
2022/12/10 00:11:11;;;;;;;39.55;13.25;;;;;;;0.24;100.00;99024.19;5016650;28;20253;-62
2022/12/10 00:13:38;;;;;;;35.55;14.68;;;;;;;0.19;100.00;99014.28;5016346;28;20062;-59
2022/12/10 00:16:08;;;;;;;37.92;14.13;;;;;;;0.25;100.00;99016.91;5016599;28;20049;-61
2022/12/10 00:18:35;;;;;;;32.33;12.48;;;;;;;0.03;100.00;99002.19;5016379;28;20388;-59
2022/12/10 00:21:03;;;;;;;33.22;13.45;;;;;;;0.04;100.00;99005.72;5016743;28;20058;-54
2022/12/10 00:23:31;;;;;;;36.53;13.90;;;;;;;0.01;100.00;99011.69;5016218;28;20046;-61
2022/12/10 00:26:02;;;;;;;32.47;14.13;;;;;;;0.13;100.00;99014.69;5016408;28;20054;-61
2022/12/10 00:28:29;;;;;;;29.98;12.45;;;;;;;0.12;100.00;99010.41;5016367;28;20156;-58
2022/12/10 00:30:56;;;;;;;36.60;13.77;;;;;;;-0.07;100.00;99003.22;5016220;28;20145;-57
2022/12/10 00:33:22;;;;;;;30.95;13.25;;;;;;;0.05;100.00;99020.78;5016498;28;20054;-56
2022/12/10 00:35:48;;;;;;;35.35;13.30;;;;;;;-0.14;100.00;99012.78;5016246;28;20054;-59
2022/12/10 00:38:14;;;;;;;35.13;13.18;;;;;;;-0.19;100.00;99021.75;5016370;28;20065;-57
2022/12/10 00:40:41;;;;;;;34.00;13.77;;;;;;;-0.29;100.00;99016.56;5016778;28;20068;-59
2022/12/10 00:43:07;;;;;;;32.65;12.95;;;;;;;-0.66;100.00;99020.94;5019744;28;20088;-56
2022/12/10 00:45:34;;;;;;;31.50;13.45;;;;;;;-0.53;100.00;99035.56;5019483;28;20065;-60
2022/12/10 00:48:00;;;;;;;26.50;12.20;;;;;;;-0.54;100.00;99028.53;5019892;28;20141;-54
2022/12/10 00:50:27;;;;;;;31.00;13.48;;;;;;;-0.25;100.00;99034.50;5019258;28;20060;-60
2022/12/10 00:52:53;;;;;;;36.80;14.02;;;;;;;-0.10;100.00;99029.94;5020047;28;20054;-56
2022/12/10 00:55:19;;;;;;;34.88;12.60;;;;;;;-0.05;100.00;99029.84;5019524;28;20065;-61
2022/12/10 00:57:45;;;;;;;33.28;13.82;;;;;;;-0.18;100.00;99009.88;5019447;28;20096;-56
2022/12/10 01:00:13;;;;;;;38.85;12.95;;;;;;;-0.01;100.00;99010.09;5019307;28;20053;-54
2022/12/10 01:02:40;;;;;;;33.83;12.85;;;;;;;-0.18;100.00;98998.31;5019288;28;20057;-58
2022/12/10 01:05:07;;;;;;;32.08;12.77;;;;;;;-0.62;100.00;99005.00;5019272;28;20049;-57
2022/12/10 01:07:33;;;;;;;31.98;12.90;;;;;;;-0.25;100.00;99018.34;5019323;28;20058;-61
2022/12/10 01:09:59;;;;;;;31.48;12.73;;;;;;;-0.26;100.00;99014.06;5019346;28;20060;-55
2022/12/10 01:12:26;;;;;;;28.52;12.55;;;;;;;-0.34;100.00;99001.25;5018945;28;20054;-60
2022/12/10 01:14:52;;;;;;;33.50;13.93;;;;;;;-0.18;100.00;98998.31;5019644;28;20057;-59
2022/12/10 01:17:18;;;;;;;34.33;13.20;;;;;;;0.00;100.00;99008.22;5018961;28;20046;-59
2022/12/10 01:19:45;;;;;;;29.27;12.63;;;;;;;-0.26;100.00;98989.03;5019430;28;20140;-61
2022/12/10 01:22:12;;;;;;;27.42;12.07;;;;;;;-0.13;100.00;98990.13;5018754;28;20058;-56
2022/12/10 01:24:38;;;;;;;31.35;12.13;;;;;;;-0.30;100.00;98990.69;5019332;28;20471;-62
2022/12/10 01:27:04;;;;;;;30.50;12.88;;;;;;;-0.17;100.00;98992.59;5018994;28;20114;-57
2022/12/10 01:29:31;;;;;;;33.38;13.13;;;;;;;-0.27;100.00;98987.41;5018991;28;20124;-53
2022/12/10 01:31:58;;;;;;;28.05;11.85;;;;;;;-0.65;100.00;98979.47;5018683;28;20140;-60
2022/12/10 01:34:24;;;;;;;31.63;11.65;;;;;;;-0.44;100.00;98993.38;5018793;28;20054;-60
2022/12/10 01:36:53;;;;;;;26.80;12.02;;;;;;;-0.75;100.00;98979.63;5019052;28;20116;-56
2022/12/10 01:39:22;;;;;;;29.95;12.00;;;;;;;-0.15;100.00;98990.41;5018582;28;20526;-57
2022/12/10 01:41:52;;;;;;;28.58;12.10;;;;;;;-1.02;100.00;98986.50;5019017;28;20057;-56
2022/12/10 01:44:55;;;;;;;31.40;12.00;;;;;;;-1.09;100.00;98987.97;5018540;28;20050;-60
2022/12/10 01:47:22;;;;;;;34.13;12.65;;;;;;;-0.81;100.00;98988.88;5018690;28;20057;-60
2022/12/10 01:49:48;;;;;;;28.52;11.48;;;;;;;-0.43;100.00;98989.59;5018501;28;20081;-59
2022/12/10 01:52:15;;;;;;;29.10;11.77;;;;;;;-0.28;100.00;98991.19;5018219;28;20419;-54
2022/12/10 01:54:44;;;;;;;27.55;11.02;;;;;;;-0.21;100.00;98986.22;5018311;28;20139;-59
2022/12/10 01:57:14;;;;;;;27.27;12.20;;;;;;;-0.31;100.00;98975.63;5018479;28;20053;-54
2022/12/10 01:59:41;;;;;;;24.42;10.80;;;;;;;-0.58;100.00;98962.91;5018654;28;20054;-56
2022/12/10 02:02:17;;;;;;;26.02;11.27;;;;;;;-0.71;100.00;98972.56;5018324;28;20475;-54
2022/12/10 02:05:00;;;;;;;28.05;11.70;;;;;;;-0.68;100.00;98980.03;5018642;28;20115;-54
2022/12/10 02:07:36;;;;;;;26.73;10.75;;;;;;;-0.61;100.00;98976.97;5018210;28;20153;-59
2022/12/10 02:10:09;;;;;;;23.40;10.00;;;;;;;-0.68;100.00;98963.91;5018354;28;20100;-56
2022/12/10 02:12:43;;;;;;;30.85;11.73;;;;;;;-0.66;100.00;98967.09;5018224;28;20050;-54
2022/12/10 02:15:14;;;;;;;26.33;10.43;;;;;;;-0.83;100.00;98964.97;5018252;28;20085;-55
2022/12/10 02:17:45;;;;;;;29.08;11.55;;;;;;;-0.60;100.00;98960.53;5018742;28;20458;-53
2022/12/10 02:20:17;;;;;;;24.08;11.35;;;;;;;-1.08;100.00;98959.97;5017985;28;20136;-60
2022/12/10 02:22:49;;;;;;;24.25;10.07;;;;;;;-0.81;100.00;98957.38;5018459;28;20441;-56
2022/12/10 02:25:19;;;;;;;28.20;11.88;;;;;;;-0.75;100.00;98958.88;5018174;28;20053;-59
2022/12/10 02:27:52;;;;;;;23.77;11.20;;;;;;;-1.00;100.00;98954.75;5017842;28;20438;-59
2022/12/10 02:30:20;;;;;;;27.00;11.48;;;;;;;-0.84;100.00;98947.19;5018186;28;20140;-57
2022/12/10 02:32:49;;;;;;;25.05;11.38;;;;;;;-1.00;100.00;98946.66;5017589;28;20057;-56
2022/12/10 02:35:23;;;;;;;27.85;11.82;;;;;;;-0.69;100.00;98948.06;5018134;28;20064;-56
2022/12/10 02:37:53;;;;;;;27.20;10.93;;;;;;;-1.22;100.00;98941.09;5017691;28;20046;-58
2022/12/10 02:40:26;;;;;;;25.48;11.52;;;;;;;-1.22;100.00;98941.09;5018164;28;20488;-54
2022/12/10 02:42:53;;;;;;;31.55;12.00;;;;;;;-1.39;100.00;98943.50;5017666;28;20050;-57
2022/12/10 02:45:22;;;;;;;30.73;12.35;;;;;;;-1.02;100.00;98932.69;5018103;28;20392;-56
2022/12/10 02:47:49;;;;;;;30.05;11.30;;;;;;;-1.34;100.00;98938.84;5017544;28;20053;-57
2022/12/10 02:50:18;;;;;;;30.45;11.90;;;;;;;-1.29;100.00;98928.00;5017499;28;20436;-60
2022/12/10 02:52:44;;;;;;;23.05;11.40;;;;;;;-1.31;100.00;98924.00;5017758;28;20059;-58
2022/12/10 02:55:12;;;;;;;29.17;11.75;;;;;;;-1.29;100.00;98933.41;5017572;28;20183;-56
2022/12/10 02:57:47;;;;;;;33.30;11.43;;;;;;;-1.07;100.00;98930.06;5017769;28;20375;-58
2022/12/10 03:00:18;;;;;;;35.67;13.40;;;;;;;-1.08;100.00;98933.06;5017458;28;20396;-56
2022/12/10 03:03:08;;;;;;;28.70;12.32;;;;;;;-0.94;100.00;98931.22;5017578;28;20054;-55
2022/12/10 03:05:40;;;;;;;37.58;12.90;;;;;;;-1.28;100.00;98939.56;5017093;28;20104;-59
2022/12/10 03:08:13;;;;;;;32.88;13.38;;;;;;;-1.08;100.00;98927.69;5017243;28;20105;-59
2022/12/10 03:10:46;;;;;;;28.88;12.75;;;;;;;-0.77;100.00;98931.50;5017197;28;20054;-59
2022/12/10 03:13:17;;;;;;;32.75;13.85;;;;;;;-1.28;100.00;98926.91;5017372;28;20140;-54
2022/12/10 03:15:45;;;;;;;31.80;12.32;;;;;;;-1.16;100.00;98934.53;5017344;28;20050;-57
2022/12/10 03:18:15;;;;;;;29.85;13.07;;;;;;;-1.19;100.00;98927.06;5017037;28;20054;-58
2022/12/10 03:20:45;;;;;;;31.95;12.88;;;;;;;-1.28;100.00;98921.53;5017511;28;20145;-61
2022/12/10 03:23:14;;;;;;;32.88;12.95;;;;;;;-1.07;100.00;98922.00;5017064;28;20060;-57
2022/12/10 03:25:42;;;;;;;35.60;12.77;;;;;;;-1.23;100.00;98918.00;5017519;28;20075;-59
2022/12/10 03:28:09;;;;;;;27.13;12.00;;;;;;;-1.23;100.00;98926.06;5016912;28;20050;-57
2022/12/10 03:30:37;;;;;;;31.02;13.43;;;;;;;-1.73;100.00;98917.66;5017091;28;20088;-56
2022/12/10 03:33:05;;;;;;;34.83;14.18;;;;;;;-1.42;100.00;98897.28;5017346;28;20084;-59
2022/12/10 03:35:33;;;;;;;28.42;11.80;;;;;;;-1.23;100.00;98904.53;5016845;28;20064;-56
2022/12/10 03:37:59;;;;;;;35.45;13.80;;;;;;;-1.35;100.00;98894.22;5017187;28;20141;-55
2022/12/10 03:40:26;;;;;;;34.38;14.18;;;;;;;-1.50;100.00;98903.34;5017028;28;20137;-59
2022/12/10 03:42:53;;;;;;;34.53;14.20;;;;;;;-1.44;100.00;98907.50;5017120;28;20155;-58
2022/12/10 03:45:19;;;;;;;36.70;14.35;;;;;;;-1.22;100.00;98890.78;5016738;28;20054;-59
2022/12/10 03:47:45;;;;;;;34.38;14.90;;;;;;;-1.34;100.00;98903.88;5017137;28;20327;-59
2022/12/10 03:50:12;;;;;;;42.92;15.82;;;;;;;-1.33;100.00;98901.97;5016895;28;20411;-53
2022/12/10 03:52:39;;;;;;;41.60;16.52;;;;;;;-1.23;100.00;98902.63;5017056;28;20058;-61
2022/12/10 03:55:06;;;;;;;37.17;15.65;;;;;;;-1.17;100.00;98897.16;5016565;28;20049;-57
2022/12/10 03:57:33;;;;;;;39.63;15.98;;;;;;;-1.48;100.00;98895.75;5016556;28;20454;-59
2022/12/10 03:59:59;;;;;;;42.20;15.50;;;;;;;-1.32;100.00;98899.00;5016858;28;20127;-56
2022/12/10 04:02:25;;;;;;;36.42;15.48;;;;;;;-1.47;100.00;98900.03;5016341;28;20054;-59
2022/12/10 04:04:52;;;;;;;38.65;16.45;;;;;;;-1.53;100.00;98903.91;5016615;28;20053;-55
2022/12/10 04:07:18;;;;;;;32.72;12.98;;;;;;;-1.59;100.00;98894.31;5016366;28;20046;-55
2022/12/10 04:09:45;;;;;;;38.25;14.88;;;;;;;-1.38;100.00;98894.00;5016793;28;20050;-56
2022/12/10 04:12:11;;;;;;;39.45;14.55;;;;;;;-1.44;100.00;98902.13;5016386;28;20054;-59
2022/12/10 04:17:22;;;;;;;36.97;15.48;;;;;;;-1.56;100.00;98903.69;5019545;28;20057;-54
2022/12/10 04:19:48;;;;;;;39.33;16.45;;;;;;;-1.59;100.00;98909.66;5020300;28;20144;-60
2022/12/10 04:27:43;;;;;;;43.13;15.00;;;;;;;-1.90;100.00;98892.06;5020237;28;20049;-57
2022/12/10 04:30:12;;;;;;;35.78;15.25;;;;;;;-1.44;100.00;98877.16;5019844;28;20081;-57
2022/12/10 04:32:38;;;;;;;36.72;15.32;;;;;;;-1.28;100.00;98881.19;5019887;28;20064;-54
2022/12/10 04:35:06;;;;;;;33.55;13.25;;;;;;;-1.40;100.00;98885.41;5019522;28;20111;-55
2022/12/10 04:37:32;;;;;;;40.55;14.27;;;;;;;-1.40;100.00;98888.13;5019957;28;20374;-57
2022/12/10 04:39:59;;;;;;;36.38;13.98;;;;;;;-1.23;100.00;98897.25;5019431;28;20061;-59
2022/12/10 04:42:25;;;;;;;37.17;14.00;;;;;;;-1.21;100.00;98900.44;5019936;28;20053;-56
2022/12/10 04:44:51;;;;;;;32.80;14.05;;;;;;;-1.66;100.00;98888.50;5019663;28;20108;-61
2022/12/10 04:47:18;;;;;;;40.22;13.75;;;;;;;-1.36;100.00;98884.56;5019505;28;20053;-55
2022/12/10 04:49:44;;;;;;;34.92;13.68;;;;;;;-1.42;100.00;98889.22;5019454;28;20145;-53
2022/12/10 04:52:12;;;;;;;33.92;13.75;;;;;;;-1.59;100.00;98880.88;5019432;28;20381;-53
2022/12/10 04:54:39;;;;;;;29.50;13.75;;;;;;;-1.85;100.00;98880.44;5019432;28;20522;-58
2022/12/10 04:57:06;;;;;;;33.60;12.98;;;;;;;-1.71;100.00;98873.25;5019136;28;20136;-56
2022/12/10 04:59:32;;;;;;;33.22;13.30;;;;;;;-1.67;100.00;98874.28;5019499;28;20068;-59
2022/12/10 05:01:59;;;;;;;35.75;13.98;;;;;;;-1.66;100.00;98858.94;5019367;28;20080;-60
2022/12/10 05:04:25;;;;;;;31.23;14.23;;;;;;;-1.60;100.00;98863.16;5019495;28;20149;-54
2022/12/10 05:06:51;;;;;;;36.05;13.35;;;;;;;-1.74;100.00;98863.06;5019077;28;20111;-57
2022/12/10 05:09:18;;;;;;;35.75;14.30;;;;;;;-1.52;100.00;98848.25;5019477;28;20149;-56
2022/12/10 05:11:44;;;;;;;30.58;13.88;;;;;;;-1.67;100.00;98849.25;5018793;28;20053;-54
2022/12/10 05:14:12;;;;;;;32.72;13.73;;;;;;;-1.71;100.00;98841.00;5018954;28;20060;-58
2022/12/10 05:16:38;;;;;;;38.60;14.38;;;;;;;-1.84;100.00;98836.34;5019233;28;20136;-55
2022/12/10 05:19:05;;;;;;;33.40;13.52;;;;;;;-1.55;100.00;98816.56;5018911;28;20459;-53
2022/12/10 05:24:13;;;;;;;37.08;13.13;;;;;;;-1.80;100.00;98828.50;5018022;28;20615;-54
2022/12/10 05:26:39;;;;;;;35.47;13.10;;;;;;;-1.94;100.00;98823.06;5018608;28;20417;-59
2022/12/10 05:29:05;;;;;;;32.60;12.02;;;;;;;-1.84;100.00;98801.41;5018742;28;20065;-53
2022/12/10 05:31:33;;;;;;;40.58;16.00;;;;;;;-1.83;100.00;98808.41;5019075;28;20391;-54
2022/12/10 05:34:00;;;;;;;35.72;14.25;;;;;;;-1.56;100.00;98805.03;5018745;28;20136;-58
2022/12/10 05:36:29;;;;;;;31.75;13.82;;;;;;;-1.89;100.00;98809.56;5018724;28;20408;-54
2022/12/10 05:38:56;;;;;;;35.65;12.95;;;;;;;-1.56;100.00;98809.59;5019119;28;20111;-58
2022/12/10 05:41:24;;;;;;;34.70;13.32;;;;;;;-1.70;100.00;98817.59;5018815;28;20053;-57
2022/12/10 05:43:53;;;;;;;29.08;13.30;;;;;;;-1.68;100.00;98821.59;5018841;28;20050;-54
2022/12/10 05:46:22;;;;;;;34.45;14.60;;;;;;;-1.57;100.00;98818.75;5018491;28;20127;-59
2022/12/10 05:48:49;;;;;;;33.38;13.30;;;;;;;-1.83;100.00;98835.28;5018641;28;20045;-55
2022/12/10 05:51:18;;;;;;;26.77;11.30;;;;;;;-1.70;100.00;98825.66;5018288;28;20085;-56
2022/12/10 05:53:45;;;;;;;33.40;13.13;;;;;;;-1.67;100.00;98825.91;5018759;28;20050;-57
2022/12/10 05:56:14;;;;;;;29.63;12.10;;;;;;;-1.87;100.00;98836.13;5018266;28;20164;-59
2022/12/10 05:58:42;;;;;;;30.00;12.00;;;;;;;-1.62;100.00;98832.28;5018905;28;20060;-58
2022/12/10 06:01:10;;;;;;;33.38;12.85;;;;;;;-1.61;100.00;98823.13;5018004;28;20192;-59
2022/12/10 06:03:37;;;;;;;31.50;11.88;;;;;;;-1.76;100.00;98837.59;5018440;28;20081;-57
2022/12/10 06:06:05;;;;;;;30.60;12.15;;;;;;;-1.88;100.00;98835.34;5018398;28;20061;-56
2022/12/10 06:08:33;;;;;;;31.73;11.73;;;;;;;-1.96;100.00;98828.75;5018350;28;20373;-59
2022/12/10 06:11:01;;;;;;;25.92;10.75;;;;;;;-1.97;100.00;98826.31;5018208;28;20092;-59
2022/12/10 06:13:27;;;;;;;30.05;13.30;;;;;;;-1.89;100.00;98806.88;5018095;28;20140;-56
2022/12/10 06:15:54;;;;;;;38.47;13.27;;;;;;;-1.78;100.00;98818.28;5018440;28;20319;-59
2022/12/10 06:18:20;;;;;;;29.30;12.65;;;;;;;-2.06;100.00;98820.81;5018107;28;20054;-59
2022/12/10 06:20:47;;;;;;;29.75;11.32;;;;;;;-1.69;100.00;98803.09;5018362;28;20407;-55
2022/12/10 06:23:14;;;;;;;32.38;12.15;;;;;;;-2.09;100.00;98821.41;5018051;28;20149;-57
2022/12/10 06:25:40;;;;;;;35.63;13.40;;;;;;;-2.13;100.00;98806.97;5018283;28;20111;-57
2022/12/10 06:28:08;;;;;;;33.78;12.20;;;;;;;-1.96;100.00;98785.75;5017717;28;20049;-57
2022/12/10 06:30:34;;;;;;;29.73;12.52;;;;;;;-1.88;100.00;98776.22;5017728;28;20438;-56
2022/12/10 06:33:01;;;;;;;32.30;13.50;;;;;;;-1.96;100.00;98782.28;5017877;28;20199;-58
2022/12/10 06:35:27;;;;;;;30.83;12.32;;;;;;;-1.86;100.00;98781.31;5017714;28;20057;-54
2022/12/10 06:37:54;;;;;;;29.65;12.73;;;;;;;-1.87;100.00;98780.50;5017445;28;20090;-60
2022/12/10 06:40:21;;;;;;;35.80;14.80;;;;;;;-1.89;100.00;98785.38;5017363;28;20046;-55
2022/12/10 06:42:47;;;;;;;32.50;13.85;;;;;;;-1.86;100.00;98784.00;5017946;28;20049;-59
2022/12/10 06:45:13;;;;;;;38.80;14.23;;;;;;;-1.85;100.00;98788.28;5017409;28;20442;-57
2022/12/10 06:47:39;;;;;;;36.75;13.25;;;;;;;-1.99;100.00;98778.28;5017734;28;20054;-60
2022/12/10 06:50:06;;;;;;;31.48;13.70;;;;;;;-1.92;100.00;98767.16;5017509;28;20081;-54
2022/12/10 06:52:32;;;;;;;33.63;12.50;;;;;;;-1.78;100.00;98778.75;5017799;28;20149;-59
2022/12/10 06:54:59;;;;;;;32.35;13.73;;;;;;;-1.96;100.00;98763.47;5017227;28;20204;-53
2022/12/10 06:57:26;;;;;;;27.60;12.20;;;;;;;-1.90;100.00;98768.47;5017708;28;20053;-59
2022/12/10 06:59:52;;;;;;;29.05;11.15;;;;;;;-1.81;100.00;98770.47;5017524;28;20152;-59
2022/12/10 07:02:18;;;;;;;31.05;12.20;;;;;;;-1.76;100.00;98767.72;5017517;28;20123;-57
2022/12/10 07:04:44;;;;;;;35.17;12.25;;;;;;;-1.81;100.00;98773.97;5017465;28;20209;-56
2022/12/10 07:07:11;;;;;;;31.83;13.65;;;;;;;-2.06;100.00;98769.78;5017469;28;20166;-59
2022/12/10 07:09:38;;;;;;;22.42;10.68;;;;;;;-1.93;100.00;98776.31;5017377;28;20085;-55
2022/12/10 07:12:05;;;;;;;28.23;12.23;;;;;;;-1.96;100.00;98772.31;5017215;28;20401;-58
2022/12/10 07:14:32;;;;;;;27.23;11.10;;;;;;;-1.90;100.00;98762.28;5017528;28;20136;-56
2022/12/10 07:16:59;;;;;;;27.15;11.63;;;;;;;-1.94;100.00;98754.00;5017383;28;20137;-55
2022/12/10 07:19:25;;;;;;;22.65;10.32;;;;;;;-2.00;100.00;98765.13;5017395;28;20054;-55
2022/12/10 07:21:51;;;;;;;31.90;11.77;;;;;;;-1.99;100.00;98753.31;5016983;28;20140;-60
2022/12/10 07:24:19;;;;;;;30.83;12.18;;;;;;;-1.80;100.00;98748.72;5017447;28;20085;-54
2022/12/10 07:26:47;;;;;;;30.45;10.68;;;;;;;-1.90;100.00;98746.97;5016676;28;20050;-56
2022/12/10 07:29:14;;;;;;;30.73;12.88;;;;;;;-1.79;100.00;98752.97;5016945;28;20461;-59
2022/12/10 07:31:41;;;;;;;28.38;12.13;;;;;;;-1.83;100.00;98757.34;5016856;28;20045;-56
2022/12/10 07:34:09;;;;;;;29.75;12.57;;;;;;;-1.52;100.00;98757.63;5016875;28;20149;-55
2022/12/10 07:36:35;;;;;;;32.30;11.98;;;;;;;-1.49;100.00;98778.56;5017215;28;20135;-58
2022/12/10 07:39:02;;;;;;;22.63;10.52;;;;;;;-1.76;100.00;98781.97;5016964;28;20159;-53
2022/12/10 07:41:29;;;;;;;28.52;11.98;;;;;;;-1.56;100.00;98788.09;5017048;28;20096;-54
2022/12/10 07:43:55;;;;;;;32.90;12.77;;;;;;;-1.39;100.00;98774.91;5016589;28;20396;-58
2022/12/10 07:46:23;;;;;;;24.13;10.65;;;;;;;-1.69;100.00;98786.97;5016935;28;20056;-57
2022/12/10 07:48:51;;;;;;;29.00;10.82;;;;;;;-1.87;100.00;98783.19;5016573;28;20056;-55
2022/12/10 07:51:19;;;;;;;28.15;10.18;;;;;;;-1.53;100.00;98787.50;5016685;28;20136;-57
2022/12/10 07:53:45;;;;;;;30.70;11.88;;;;;;;-1.65;100.00;98782.59;5016476;28;20140;-60
2022/12/10 07:56:12;;;;;;;34.72;12.02;;;;;;;-1.56;100.00;98785.41;5016728;28;20076;-56
2022/12/10 07:58:42;;;;;;;30.08;11.98;;;;;;;-1.66;100.00;98779.09;5016781;28;20062;-59
2022/12/10 08:01:14;;;;;;;24.02;10.82;;;;;;;-1.80;100.00;98785.50;5016423;28;20402;-57
2022/12/10 08:03:42;;;;;;;23.92;10.75;;;;;;;-1.91;100.00;98779.50;5016638;28;20060;-58
2022/12/10 08:06:11;;;;;;;28.17;11.63;;;;;;;-1.72;100.00;98779.47;5016362;28;20056;-57
2022/12/10 08:08:38;;;;;;;27.65;11.40;;;;;;;-2.00;100.00;98778.56;5016640;28;20087;-58
2022/12/10 08:11:05;;;;;;;17.90;8.88;;;;;;;-1.82;100.00;98771.56;5016229;28;20137;-54
2022/12/10 08:13:32;;;;;;;24.40;10.32;;;;;;;-1.76;100.00;98778.47;5017072;28;20050;-56
2022/12/10 08:16:01;;;;;;;22.25;10.35;;;;;;;-1.82;100.00;98764.31;5016235;28;20144;-56
2022/12/10 08:18:27;;;;;;;21.60;10.45;;;;;;;-1.99;100.00;98770.22;5016676;28;20199;-54
2022/12/10 08:20:53;;;;;;;25.35;10.10;;;;;;;-1.82;100.00;98760.84;5016149;28;20046;-60
2022/12/10 08:23:20;;;;;;;20.90;9.25;;;;;;;-1.62;100.00;98762.38;5016184;28;20049;-55
2022/12/10 08:25:47;;;;;;;22.25;9.10;;;;;;;-1.62;100.00;98762.38;5016252;28;20084;-58
2022/12/10 08:28:13;;;;;;;21.33;10.18;;;;;;;-1.80;100.00;98751.41;5016304;28;20382;-57
2022/12/10 08:30:40;;;;;;;24.55;9.75;;;;;;;-1.56;100.00;98745.88;5016320;28;20316;-58
2022/12/10 08:33:06;;;;;;;21.35;9.63;;;;;;;-1.53;100.00;98750.69;5015929;28;20064;-57
2022/12/10 08:35:33;;;;;;;19.52;9.02;;;;;;;-1.48;100.00;98742.50;5016353;28;20054;-59
2022/12/10 08:37:59;;;;;;;23.77;12.32;;;;;;;-1.67;100.00;98747.94;5016115;28;20392;-56
2022/12/10 08:40:26;;;;;;;21.88;8.77;;;;;;;-1.73;100.00;98742.94;5016083;28;20192;-56
2022/12/10 08:42:52;;;;;;;17.75;8.77;;;;;;;-1.76;100.00;98743.53;5015989;28;20252;-56
2022/12/10 08:45:18;;;;;;;23.52;9.68;;;;;;;-1.57;100.00;98738.88;5016405;28;20323;-56
2022/12/10 08:47:45;;;;;;;18.75;9.55;;;;;;;-1.63;100.00;98753.53;5015835;28;20054;-56
2022/12/10 08:50:11;;;;;;;21.75;10.07;;;;;;;-1.56;100.00;98742.41;5015871;28;20443;-58
2022/12/10 08:52:37;;;;;;;22.05;9.25;;;;;;;-1.52;100.00;98738.03;5015968;28;20431;-58
2022/12/10 08:55:04;;;;;;;21.90;10.25;;;;;;;-1.60;100.00;98736.81;5016011;28;20071;-54
2022/12/10 08:57:31;;;;;;;18.58;7.88;;;;;;;-1.27;100.00;98742.13;5015923;28;20056;-60
2022/12/10 08:59:58;;;;;;;17.60;8.93;;;;;;;-1.30;100.00;98745.41;5015719;28;20064;-56
2022/12/10 09:02:24;;;;;;;21.77;9.60;;;;;;;-1.42;100.00;98737.84;5017633;28;20050;-60
2022/12/10 09:04:51;;;;;;;19.77;9.35;;;;;;;-1.19;100.00;98731.50;5019165;28;20061;-59
2022/12/10 09:07:18;;;;;;;17.42;8.60;;;;;;;-1.19;100.00;98726.13;5019308;28;20054;-56
2022/12/10 09:09:44;;;;;;;19.60;8.82;;;;;;;-1.21;100.00;98730.97;5018961;28;20057;-59
2022/12/10 09:12:10;;;;;;;15.90;8.70;;;;;;;-1.12;100.00;98723.03;5019319;28;20054;-55
2022/12/10 09:14:38;;;;;;;20.35;9.77;;;;;;;-1.08;100.00;98717.84;5018901;28;20117;-57
2022/12/10 09:17:05;;;;;;;18.48;9.02;;;;;;;-0.84;100.00;98714.94;5019321;28;20403;-57
2022/12/10 09:19:31;;;;;;;16.60;8.52;;;;;;;-1.19;100.00;98693.03;5018838;28;20152;-57
2022/12/10 09:21:57;;;;;;;16.98;8.60;;;;;;;-0.80;100.00;98695.22;5018849;28;20060;-56
2022/12/10 09:24:24;;;;;;;22.58;9.52;;;;;;;-1.17;100.00;98672.00;5019044;28;20053;-59
2022/12/10 09:26:50;;;;;;;14.32;7.32;;;;;;;-1.16;100.00;98673.63;5018908;28;20046;-54
2022/12/10 09:29:16;;;;;;;18.60;9.82;;;;;;;-1.46;100.00;98669.63;5018934;28;20145;-59
2022/12/10 09:31:43;;;;;;;18.92;8.82;;;;;;;-1.22;100.00;98690.97;5018464;28;20149;-57
2022/12/10 09:34:11;;;;;;;19.40;9.07;;;;;;;-0.94;100.00;98694.41;5019132;28;20049;-59
2022/12/10 09:36:38;;;;;;;15.25;7.95;;;;;;;-1.45;100.00;98671.22;5018698;28;20050;-57
2022/12/10 09:39:04;;;;;;;15.07;7.75;;;;;;;-1.58;100.00;98674.69;5019028;28;20132;-54
2022/12/10 09:41:53;;;;;;;23.50;8.93;;;;;;;-1.21;100.00;98698.72;5018545;28;20204;-61
2022/12/10 09:44:31;;;;;;;16.90;7.47;;;;;;;-0.92;100.00;98694.94;5018409;28;20050;-59
2022/12/10 09:47:00;;;;;;;14.02;7.82;;;;;;;-1.00;100.00;98684.84;5018736;28;20432;-58
2022/12/10 09:49:39;;;;;;;21.48;8.82;;;;;;;-0.90;100.00;98678.47;5018362;28;20132;-53
2022/12/10 09:52:12;;;;;;;15.02;7.35;;;;;;;-1.15;100.00;98669.81;5018571;28;20049;-56
2022/12/10 09:54:41;;;;;;;17.88;8.02;;;;;;;-1.27;100.00;98656.06;5018293;28;20060;-56
2022/12/10 09:57:15;;;;;;;17.77;7.88;;;;;;;-0.93;100.00;98668.31;5018636;28;20096;-60
2022/12/10 09:59:47;;;;;;;14.82;7.63;;;;;;;-0.87;100.00;98675.19;5017883;28;20136;-58
2022/12/10 10:02:21;;;;;;;18.35;8.45;;;;;;;-0.55;100.00;98645.41;5018507;28;20327;-56
2022/12/10 10:04:48;;;;;;;13.10;8.23;;;;;;;-0.54;100.00;98635.41;5018374;28;20152;-57
2022/12/10 10:07:21;;;;;;;19.70;8.32;;;;;;;-0.70;100.00;98618.81;5018189;28;20054;-53
2022/12/10 10:09:48;;;;;;;16.52;8.73;;;;;;;-0.97;100.00;98600.84;5018398;28;20141;-54
2022/12/10 10:12:15;;;;;;;15.43;7.25;;;;;;;-0.41;100.00;98601.47;5018033;28;20423;-58
2022/12/10 10:14:43;;;;;;;14.43;6.80;;;;;;;-0.74;100.00;98569.38;5018273;28;20050;-54
2022/12/10 10:17:16;;;;;;;19.92;7.70;;;;;;;-0.67;100.00;98577.03;5017714;28;20090;-55
2022/12/10 10:19:44;;;;;;;17.00;7.90;;;;;;;-1.17;100.00;98566.31;5018281;28;20053;-57
2022/12/10 10:22:11;;;;;;;14.90;7.88;;;;;;;-0.99;100.00;98590.41;5017935;28;20120;-58
2022/12/10 10:24:41;;;;;;;18.65;8.35;;;;;;;-0.75;100.00;98613.56;5017865;28;20050;-59
2022/12/10 10:27:14;;;;;;;13.65;7.38;;;;;;;-1.22;100.00;98602.19;5017913;28;20196;-59
2022/12/10 10:29:40;;;;;;;17.50;8.32;;;;;;;-1.19;100.00;98613.16;5017899;28;20416;-57
2022/12/10 10:32:18;;;;;;;16.27;8.13;;;;;;;-0.88;100.00;98620.56;5017999;28;20050;-54
2022/12/10 10:34:52;;;;;;;13.02;7.63;;;;;;;-0.76;100.00;98611.97;5017735;28;20054;-56
2022/12/10 10:37:22;;;;;;;17.33;8.13;;;;;;;-0.81;100.00;98614.75;5018331;28;20081;-56
2022/12/10 10:39:50;;;;;;;11.95;7.25;;;;;;;-0.88;100.00;98588.28;5017743;28;20140;-57
2022/12/10 10:42:28;;;;;;;18.40;7.80;;;;;;;-1.31;100.00;98577.91;5018090;28;20374;-57
2022/12/10 10:44:57;;;;;;;17.05;8.35;;;;;;;-1.12;100.00;98599.28;5017720;28;20143;-55
2022/12/10 10:47:29;;;;;;;16.85;8.50;;;;;;;-1.29;100.00;98609.88;5017730;28;20145;-59
2022/12/10 10:49:57;;;;;;;16.63;7.38;;;;;;;-1.19;100.00;98610.47;5018012;28;20100;-54
2022/12/10 10:52:29;;;;;;;20.13;8.35;;;;;;;-1.15;100.00;98615.25;5017456;28;20168;-56
2022/12/10 10:54:56;;;;;;;32.55;8.27;;;;;;;-1.30;100.00;98624.41;5017514;28;20144;-54
2022/12/10 10:57:25;;;;;;;14.63;7.40;;;;;;;-1.21;100.00;98636.84;5017291;28;20243;-55
2022/12/10 10:59:54;;;;;;;14.57;8.13;;;;;;;-0.82;100.00;98632.03;5017702;28;20061;-53
2022/12/10 11:02:24;;;;;;;14.15;7.20;;;;;;;-0.82;100.00;98632.03;5017248;28;20153;-60
2022/12/10 11:04:53;;;;;;;14.02;7.18;;;;;;;-0.89;100.00;98600.16;5017316;28;20136;-60
2022/12/10 11:07:26;;;;;;;11.88;6.75;;;;;;;-1.07;100.00;98598.38;5017018;28;20161;-58
2022/12/10 11:09:54;;;;;;;14.70;8.10;;;;;;;-0.92;100.00;98589.19;5016984;28;20073;-53
2022/12/10 11:12:38;;;;;;;14.85;7.53;;;;;;;-0.89;100.00;98580.53;5017155;28;20053;-56
2022/12/10 11:15:30;;;;;;;14.95;7.55;;;;;;;-0.61;100.00;98587.38;5017099;28;20147;-56
2022/12/10 11:17:57;;;;;;;14.95;7.32;;;;;;;-0.71;100.00;98560.69;5017550;28;20050;-55
2022/12/10 11:20:27;;;;;;;9.65;5.80;;;;;;;-0.95;100.00;98551.03;5017363;28;20087;-60
2022/12/10 11:22:57;;;;;;;17.05;8.35;;;;;;;-0.75;100.00;98555.13;5017404;28;20054;-57
2022/12/10 11:25:35;;;;;;;13.18;7.05;;;;;;;-0.66;100.00;98563.28;5016656;28;20348;-55
2022/12/10 11:28:08;;;;;;;15.13;7.38;;;;;;;-1.17;100.00;98544.81;5016954;28;20068;-58